Time;durP1;ratioP1;P1;durP2;ratioP2;P2;SDS_P1;SDS_P2;PMS_P1;PMS_P2;Temp;Humidity;BMP_temperature;BMP_pressure;BME280_temperature;BME280_humidity;BME280_pressure;Samples;Min_cycle;Max_cycle;Signal;HPM_P1;HPM_P2
2022/12/16 00:00:46;;;;;;;;;4.50;4.50;;;;;-6.34;82.31;99292.22;5075490;28;8854;-59
2022/12/16 00:03:14;;;;;;;;;7.50;7.50;;;;;-6.36;82.46;99293.97;5078058;28;8842;-58
2022/12/16 00:05:42;;;;;;;;;1.50;1.00;;;;;-6.37;82.33;99286.25;5078759;28;8928;-58
2022/12/16 00:08:12;;;;;;;;;6.00;6.00;;;;;-6.40;82.30;99289.75;5078796;28;8810;-57
2022/12/16 00:10:53;;;;;;;;;3.50;3.50;;;;;-6.42;82.09;99294.13;5080081;28;8841;-58
2022/12/16 00:13:21;;;;;;;;;5.50;5.50;;;;;-6.44;82.34;99297.63;5063883;28;8931;-58
2022/12/16 00:15:49;;;;;;;;;3.50;3.00;;;;;-6.46;82.42;99297.66;5074872;28;8817;-58
2022/12/16 00:18:18;;;;;;;;;4.00;3.75;;;;;-6.46;82.06;99300.25;5074237;28;8810;-58
2022/12/16 00:20:46;;;;;;;;;8.75;6.75;;;;;-6.45;82.20;99294.16;5074714;28;8828;-58
2022/12/16 00:23:14;;;;;;;;;1.00;1.00;;;;;-6.42;82.37;99290.66;5073922;28;8822;-58
2022/12/16 00:25:42;;;;;;;;;6.75;6.75;;;;;-6.41;82.14;99288.06;5074576;28;8833;-58
2022/12/16 00:28:09;;;;;;;;;5.50;4.50;;;;;-6.44;82.22;99289.84;5075459;28;8818;-58
2022/12/16 00:30:37;;;;;;;;;3.75;2.75;;;;;-6.46;82.11;99289.88;5074169;28;8822;-58
2022/12/16 00:33:04;;;;;;;;;3.75;3.75;;;;;-6.46;82.38;99294.22;5075665;28;9581;-58
2022/12/16 00:35:32;;;;;;;;;4.75;4.75;;;;;-6.48;82.29;99289.06;5077835;28;8826;-58
2022/12/16 00:37:59;;;;;;;;;4.50;4.50;;;;;-6.51;81.98;99285.69;5079106;28;8918;-56
2022/12/16 00:40:27;;;;;;;;;6.25;4.50;;;;;-6.55;81.70;99287.50;5077675;28;8814;-58
2022/12/16 00:42:55;;;;;;;;;2.00;1.00;;;;;-6.60;82.12;99289.34;5081868;28;8828;-58
2022/12/16 00:45:23;;;;;;;;;3.75;3.25;;;;;-6.64;81.87;99295.47;5084761;28;8907;-58
2022/12/16 00:47:50;;;;;;;;;3.75;3.75;;;;;-6.68;82.05;99290.41;5084743;28;8808;-58
2022/12/16 00:50:19;;;;;;;;;5.75;5.25;;;;;-6.72;82.17;99301.69;5080667;28;8824;-56
2022/12/16 00:52:46;;;;;;;;;3.00;3.00;;;;;-6.74;81.95;99303.47;5080669;28;8934;-58
2022/12/16 00:55:14;;;;;;;;;2.25;2.25;;;;;-6.77;82.30;99288.84;5080137;28;8932;-58
2022/12/16 00:57:41;;;;;;;;;6.25;6.00;;;;;-6.76;82.34;99295.72;5078502;28;8822;-58
2022/12/16 01:00:11;;;;;;;;;1.00;1.00;;;;;-6.77;82.43;99293.16;5082880;28;8832;-58
2022/12/16 01:02:40;;;;;;;;;0.75;0.00;;;;;-6.79;82.26;99290.63;5082372;28;8837;-58
2022/12/16 01:05:08;;;;;;;;;4.50;3.50;;;;;-6.78;82.45;99288.88;5081341;28;8909;-57
2022/12/16 01:07:37;;;;;;;;;3.50;3.25;;;;;-6.76;82.02;99287.13;5082556;28;8836;-58
2022/12/16 01:10:05;;;;;;;;;1.50;1.50;;;;;-6.76;82.65;99294.91;5074442;28;8842;-57
2022/12/16 01:12:32;;;;;;;;;6.25;5.50;;;;;-6.79;82.02;99295.81;5080998;28;8856;-59
2022/12/16 01:15:00;;;;;;;;;2.00;0.75;;;;;-6.82;82.01;99293.28;5078042;28;8817;-59
2022/12/16 01:17:28;;;;;;;;;1.00;1.00;;;;;-6.84;81.83;99295.03;5082577;28;8824;-59
2022/12/16 01:19:56;;;;;;;;;5.00;4.00;;;;;-6.88;82.33;99300.31;5082847;28;8850;-58
2022/12/16 01:22:24;;;;;;;;;4.50;3.50;;;;;-6.91;82.04;99302.97;5077877;28;8961;-58
2022/12/16 01:24:51;;;;;;;;;5.50;4.50;;;;;-6.94;82.30;99301.31;5083089;28;9637;-58
2022/12/16 01:27:21;;;;;;;;;2.00;2.00;;;;;-6.94;82.27;99313.38;5078790;28;9023;-59
2022/12/16 01:29:49;;;;;;;;;4.00;4.00;;;;;-6.96;81.71;99305.63;5081517;28;8842;-59
2022/12/16 01:32:18;;;;;;;;;3.00;1.00;;;;;-6.96;82.41;99304.81;5078903;28;8820;-59
2022/12/16 01:34:45;;;;;;;;;7.25;7.25;;;;;-6.94;82.07;99310.78;5082521;28;8808;-59
2022/12/16 01:37:21;;;;;;;;;2.50;2.50;;;;;-6.94;82.19;99321.13;5081961;28;8834;-58
2022/12/16 01:39:49;;;;;;;;;4.50;4.00;;;;;-6.92;81.90;99320.22;5079735;28;8828;-58
2022/12/16 01:42:18;;;;;;;;;4.50;4.00;;;;;-6.91;81.99;99321.91;5083862;28;8816;-59
2022/12/16 01:44:45;;;;;;;;;3.50;3.50;;;;;-6.93;82.10;99315.94;5083727;28;8813;-59
2022/12/16 01:47:13;;;;;;;;;3.00;3.00;;;;;-6.91;82.41;99328.84;5078835;28;8913;-58
2022/12/16 01:49:40;;;;;;;;;1.00;1.00;;;;;-6.92;82.08;99325.41;5077818;28;8832;-57
2022/12/16 01:52:08;;;;;;;;;6.25;5.00;;;;;-6.93;82.15;99330.59;5079107;28;9481;-59
2022/12/16 01:54:36;;;;;;;;;3.50;3.50;;;;;-6.94;82.12;99324.59;5079357;28;9440;-58
2022/12/16 01:57:03;;;;;;;;;9.00;7.00;;;;;-6.96;82.13;99321.16;5078845;28;8901;-58
2022/12/16 01:59:31;;;;;;;;;3.25;2.50;;;;;-6.96;81.90;99328.91;5082014;28;9463;-56
2022/12/16 02:01:59;;;;;;;;;3.75;3.75;;;;;-6.96;82.47;99325.50;5081599;28;8975;-56
2022/12/16 02:04:27;;;;;;;;;2.50;2.50;;;;;-6.97;82.07;99323.78;5081107;28;8836;-58
2022/12/16 02:06:59;;;;;;;;;4.00;3.50;;;;;-7.00;82.08;99319.53;5077188;28;9549;-56
2022/12/16 02:09:27;;;;;;;;;5.50;4.25;;;;;-7.00;82.26;99324.69;5077220;28;8847;-57
2022/12/16 02:11:55;;;;;;;;;6.00;4.00;;;;;-7.01;82.14;99325.59;5077463;28;8838;-58
2022/12/16 02:14:22;;;;;;;;;4.25;3.75;;;;;-7.02;82.13;99331.66;5078037;28;8894;-59
2022/12/16 02:16:50;;;;;;;;;1.50;1.50;;;;;-7.02;82.44;99326.47;5080159;28;8810;-58
2022/12/16 02:19:19;;;;;;;;;3.50;3.50;;;;;-7.04;82.07;99328.22;5080944;28;8826;-58
2022/12/16 02:21:47;;;;;;;;;3.00;3.00;;;;;-7.04;81.95;99335.97;5080700;28;8858;-58
2022/12/16 02:24:15;;;;;;;;;4.75;3.75;;;;;-7.05;81.70;99336.84;5080798;28;8916;-58
2022/12/16 02:26:43;;;;;;;;;0.00;0.00;;;;;-7.06;82.23;99329.16;5078377;28;8814;-57
2022/12/16 02:29:11;;;;;;;;;9.00;6.00;;;;;-7.06;81.83;99327.41;5079479;28;8820;-58
2022/12/16 02:31:41;;;;;;;;;4.50;3.25;;;;;-7.06;82.10;99335.16;5081074;28;8891;-58
2022/12/16 02:34:09;;;;;;;;;6.00;5.00;;;;;-7.07;81.78;99330.88;5081126;28;8840;-56
2022/12/16 02:36:36;;;;;;;;;3.00;3.00;;;;;-7.08;82.04;99323.13;5079188;28;8827;-58
2022/12/16 02:39:04;;;;;;;;;3.75;3.75;;;;;-7.09;81.80;99335.22;5073603;28;8810;-58
2022/12/16 02:41:32;;;;;;;;;5.50;4.00;;;;;-7.10;82.21;99327.50;5081693;28;8846;-58
2022/12/16 02:44:01;;;;;;;;;6.75;4.00;;;;;-7.09;82.09;99334.38;5080703;28;9487;-59
2022/12/16 02:46:28;;;;;;;;;5.50;5.50;;;;;-7.14;81.94;99334.47;5078219;28;8842;-59
2022/12/16 02:48:56;;;;;;;;;6.00;4.50;;;;;-7.16;81.87;99331.06;5080201;28;8956;-59
2022/12/16 02:51:24;;;;;;;;;3.25;3.25;;;;;-7.19;81.96;99335.44;5079095;28;8873;-58
2022/12/16 02:53:52;;;;;;;;;9.50;7.50;;;;;-7.22;81.56;99328.59;5077888;28;8842;-58
2022/12/16 02:56:19;;;;;;;;;1.00;1.00;;;;;-7.24;81.86;99330.34;5078419;28;8931;-58
2022/12/16 02:58:47;;;;;;;;;2.75;2.75;;;;;-7.26;81.88;99342.47;5077194;28;8869;-57
2022/12/16 03:01:14;;;;;;;;;2.00;2.00;;;;;-7.29;81.58;99329.56;5079153;28;8808;-58
2022/12/16 03:03:42;;;;;;;;;6.00;6.00;;;;;-7.31;82.00;99328.75;5078477;28;8846;-58
2022/12/16 03:06:10;;;;;;;;;1.50;1.50;;;;;-7.29;81.69;99339.09;5076071;28;8818;-58
2022/12/16 03:08:38;;;;;;;;;3.00;1.00;;;;;-7.31;82.63;99333.94;5082094;28;8808;-59
2022/12/16 03:11:07;;;;;;;;;3.00;3.00;;;;;-7.30;81.94;99332.19;5076815;28;8798;-58
2022/12/16 03:13:34;;;;;;;;;4.50;4.50;;;;;-7.30;82.42;99330.47;5079389;28;8943;-58
2022/12/16 03:16:02;;;;;;;;;2.00;2.00;;;;;-7.29;81.81;99323.56;5075225;28;8825;-57
2022/12/16 03:18:30;;;;;;;;;3.50;3.50;;;;;-7.29;81.83;99331.31;5075675;28;8850;-58
2022/12/16 03:20:57;;;;;;;;;3.00;3.00;;;;;-7.31;81.94;99333.94;5077729;28;8895;-56
2022/12/16 03:23:25;;;;;;;;;4.25;3.75;;;;;-7.30;82.07;99335.63;5078888;28;8835;-58
2022/12/16 03:25:53;;;;;;;;;6.25;5.50;;;;;-7.30;82.27;99330.47;5077667;28;8812;-59
2022/12/16 03:28:20;;;;;;;;;3.00;3.00;;;;;-7.29;82.24;99333.91;5080729;28;8834;-59
2022/12/16 03:30:48;;;;;;;;;2.75;2.50;;;;;-7.31;81.64;99331.34;5074386;28;10200;-58
2022/12/16 03:33:20;;;;;;;;;6.25;4.50;;;;;-7.34;81.80;99331.38;5078820;28;8815;-59
2022/12/16 03:35:48;;;;;;;;;2.00;2.00;;;;;-7.35;81.99;99342.59;5081307;28;8900;-58
2022/12/16 03:38:15;;;;;;;;;3.25;3.25;;;;;-7.36;82.44;99338.31;5079186;28;8824;-58
2022/12/16 03:40:43;;;;;;;;;3.00;3.00;;;;;-7.36;81.91;99342.66;5075042;28;8834;-58
2022/12/16 03:43:11;;;;;;;;;3.75;3.75;;;;;-7.37;82.05;99341.78;5073647;28;8851;-58
2022/12/16 03:45:40;;;;;;;;;4.00;4.00;;;;;-7.34;81.91;99343.47;5078382;28;8931;-58
2022/12/16 03:48:08;;;;;;;;;4.50;4.50;;;;;-7.34;82.07;99348.66;5075829;28;8841;-58
2022/12/16 03:50:35;;;;;;;;;4.00;3.00;;;;;-7.34;82.00;99344.31;5075692;28;8916;-58
2022/12/16 03:53:03;;;;;;;;;4.00;4.00;;;;;-7.35;82.03;99347.78;5079434;28;8830;-57
2022/12/16 03:55:32;;;;;;;;;4.50;4.00;;;;;-7.37;81.86;99348.69;5078128;28;8860;-58
2022/12/16 03:58:02;;;;;;;;;8.50;7.50;;;;;-7.39;81.77;99355.63;5079172;28;8837;-58
2022/12/16 04:00:30;;;;;;;;;6.25;5.00;;;;;-7.41;81.25;99357.38;5080070;28;8844;-56
2022/12/16 04:02:57;;;;;;;;;3.75;3.00;;;;;-7.41;82.01;99359.97;5076772;28;8860;-58
2022/12/16 04:05:25;;;;;;;;;4.00;4.00;;;;;-7.44;81.84;99353.13;5078527;28;8853;-58
2022/12/16 04:07:53;;;;;;;;;0.50;0.50;;;;;-7.46;81.75;99354.88;5079299;28;8815;-58
2022/12/16 04:24:19;;;;;;;;;5.00;4.50;;;;;-7.50;82.23;99357.56;5078658;28;8845;-58
2022/12/16 04:30:17;;;;;;;;;4.50;4.00;;;;;-7.53;82.13;99373.09;5082555;28;8835;-58
2022/12/16 04:34:24;;;;;;;;;9.50;9.00;;;;;-7.55;82.38;99377.44;5082123;28;8814;-58
